Shymkent Airport
UAII : now visible

Airfield :











YOU CAN JOIN US ON...

 
LOGIN :

Register | Disclaimer

   EN    FR    IT 

 









Legend :    VFR   Marginal VFR   IFR   Intensive IFR   Very Intensive IFR
Visi :
Ceiling :
>= 8 km
>= 3000ft
5 to 8 km
1000 to 3000 ft
1500m to 5 km
500 to 1000 ft
800 to 1500m
200 to 500 ft
< 800m
< 200 ft
Symbols :   Thunderstorms  Fog  Heavy snow  Heavy precipitations  Wind > 20 kt






- Airport Elevation : 1385 ft
- IATA code : CIT


UAII - Shymkent

CURRENT METAR :
  • 031700Z 12003MPS 9999 SCT046 OVC100 15/06 Q1017 R10/0///70 NOSIG RMK QFE727/0970

EXPIRED METARs :
  • 031630Z 09002MPS 060V120 9999 SCT046 OVC100 16/06 Q1017 R10/0///70 NOSIG RMK QFE727/0970
  • 031600Z 13004MPS 9999 SCT046 OVC100 17/06 Q1017 R10/0///70 NOSIG RMK QFE727/0969
  • 031530Z VRB01MPS 9999 SCT046 OVC100 15/07 Q1017 R28/0///70 NOSIG RMK QFE725/0967
  • 031500Z 12002MPS 9999 SCT046 BKN100 18/04 Q1016 R28/0///70 NOSIG RMK QFE725/0967
  • 031430Z 15001MPS 9999 SCT046 BKN100 18/04 Q1016 R28/0///70 NOSIG RMK QFE725/0967

TAF TAF UAII
Valid from the 03 at 12:00 until the 04 at 12:00 UTC


031100Z 0312/0412 30003G08MPS 6000 SCT040 BKN100 TX25/0410Z TN08/0401Z
TEMPO 0312/0317 20006MPS 3100 FU BKN030CB OVC100
TEMPO 0317/0403 12005MPS 3100 FU BR SCT033CB



MET'MAP, your aeronautical weather chart ! - Copyright ORBIFLY December 2007 - Disclaimer

ORBIFLY MET'MAP TEAM :

Programming & Development : Alexandra Zaïnal
Concept & original design : Baudouin d'Aumeries
Assistance for programming : Marc-Olivier Méhu
Technical & hardware support : Manuel Goepfert

Contact : metmap@orbifly.com




SOURCES & CREDITS :

   NOAA       Earth
Advisory